Time;durP1;ratioP1;P1;durP2;ratioP2;P2;SDS_P1;SDS_P2;PMS_P1;PMS_P2;Temp;Humidity;BMP_temperature;BMP_pressure;BME280_temperature;BME280_humidity;BME280_pressure;Samples;Min_cycle;Max_cycle;Signal;HPM_P1;HPM_P2
2022/06/04 00:02:06;;;;;;;36.38;9.00;;;22.70;99.90;;;;;;5008110;28;20026;-74
2022/06/04 00:04:32;;;;;;;36.28;10.15;;;22.60;99.90;;;;;;5008447;28;20026;-74
2022/06/04 00:06:58;;;;;;;23.52;9.35;;;22.60;99.90;;;;;;5010540;28;20087;-74
2022/06/04 00:09:26;;;;;;;32.67;9.20;;;22.70;99.90;;;;;;5008759;28;20038;-75
2022/06/04 00:17:22;;;;;;;31.92;9.00;;;22.50;99.90;;;;;;5008305;28;20036;-74
2022/06/04 00:19:48;;;;;;;30.00;9.80;;;22.50;99.90;;;;;;5007562;28;20499;-74
2022/06/04 00:22:15;;;;;;;34.53;10.05;;;22.50;99.90;;;;;;5008528;28;20038;-74
2022/06/04 00:24:42;;;;;;;34.28;11.85;;;22.60;99.90;;;;;;5009975;28;20545;-74
2022/06/04 00:27:18;;;;;;;36.55;11.38;;;22.70;99.90;;;;;;5007949;28;20609;-74
2022/06/04 00:29:44;;;;;;;31.73;10.80;;;22.70;99.90;;;;;;5007581;28;20038;-74
2022/06/04 00:32:10;;;;;;;39.30;12.30;;;22.60;99.90;;;;;;5008101;28;20030;-74
2022/06/04 00:34:36;;;;;;;35.90;11.13;;;22.60;99.90;;;;;;5013691;28;20048;-75
2022/06/04 00:37:02;;;;;;;32.95;11.18;;;22.60;99.90;;;;;;5011663;28;20022;-74
2022/06/04 00:39:28;;;;;;;38.63;11.75;;;22.60;99.90;;;;;;5014121;28;20025;-75
2022/06/04 00:42:11;;;;;;;36.25;11.00;;;22.60;99.90;;;;;;5015774;28;20053;-74
2022/06/04 00:44:37;;;;;;;30.48;10.50;;;22.60;99.90;;;;;;5016814;28;20068;-74
2022/06/04 00:47:21;;;;;;;34.17;10.07;;;22.60;99.90;;;;;;5016101;28;20117;-74
2022/06/04 00:49:46;;;;;;;31.45;10.25;;;22.50;99.90;;;;;;5016101;28;20029;-74
2022/06/04 00:52:14;;;;;;;30.45;9.77;;;22.50;99.90;;;;;;5016101;28;20037;-74
2022/06/04 00:54:43;;;;;;;36.58;10.88;;;22.50;99.90;;;;;;5013452;28;20487;-75
2022/06/04 00:57:29;;;;;;;34.33;10.68;;;22.50;99.90;;;;;;5016620;28;20034;-75
2022/06/04 01:00:17;;;;;;;34.80;9.77;;;22.60;99.90;;;;;;5016514;28;20033;-75
2022/06/04 01:02:55;;;;;;;32.92;10.18;;;22.50;99.90;;;;;;5014898;28;20065;-74
2022/06/04 01:05:23;;;;;;;37.33;9.45;;;22.50;99.90;;;;;;5016399;28;20029;-74
2022/06/04 01:08:09;;;;;;;29.23;8.50;;;22.50;99.90;;;;;;5014943;28;20046;-74
2022/06/04 01:10:46;;;;;;;38.10;9.40;;;22.50;99.90;;;;;;5015188;28;20099;-74
2022/06/04 01:13:43;;;;;;;34.13;8.60;;;22.50;99.90;;;;;;5013967;28;20030;-75
2022/06/04 01:16:39;;;;;;;32.03;8.95;;;22.50;99.90;;;;;;5013910;28;20049;-74
2022/06/04 01:19:40;;;;;;;32.72;8.57;;;22.50;99.90;;;;;;5013560;28;20207;-75
2022/06/04 01:22:16;;;;;;;35.45;9.25;;;22.50;99.90;;;;;;5012473;28;20145;-74
2022/06/04 01:25:00;;;;;;;34.25;9.65;;;22.40;99.90;;;;;;5009821;28;20030;-75
2022/06/04 01:27:37;;;;;;;32.97;9.40;;;22.50;99.90;;;;;;5012060;28;20038;-75
2022/06/04 01:30:13;;;;;;;28.67;9.32;;;22.50;99.90;;;;;;5008459;28;20132;-75
2022/06/04 01:32:51;;;;;;;30.40;10.90;;;22.50;99.90;;;;;;5014556;28;20107;-74
2022/06/04 01:35:23;;;;;;;24.08;8.20;;;22.50;99.90;;;;;;5015994;28;20034;-74
2022/06/04 01:38:38;;;;;;;40.08;9.60;;;22.50;99.90;;;;;;5014388;28;20017;-75
2022/06/04 01:41:09;;;;;;;;;;;22.50;99.90;;;;;;4996973;28;20046;-75
2022/06/04 01:43:35;;;;;;;26.45;8.15;;;22.50;99.90;;;;;;5014541;28;19913;-75
2022/06/04 01:46:22;;;;;;;25.80;8.88;;;22.60;99.90;;;;;;5014093;28;20556;-75
2022/06/04 01:48:52;;;;;;;31.77;8.63;;;22.50;99.90;;;;;;5010239;28;20023;-74
2022/06/04 01:51:22;;;;;;;23.15;8.52;;;22.50;99.90;;;;;;5014230;28;20022;-74
2022/06/04 01:53:52;;;;;;;28.70;8.63;;;22.50;99.90;;;;;;5015527;28;20033;-74
2022/06/04 01:56:27;;;;;;;28.50;9.55;;;22.50;99.90;;;;;;5014390;28;20034;-74
2022/06/04 01:59:08;;;;;;;28.65;9.35;;;22.50;99.90;;;;;;5014474;28;20052;-74
2022/06/04 02:01:36;;;;;;;29.88;8.32;;;22.50;99.90;;;;;;5001338;28;20061;-74
2022/06/04 02:04:06;;;;;;;26.42;8.77;;;22.40;99.90;;;;;;5012989;28;20068;-75
2022/06/04 02:06:39;;;;;;;29.25;8.88;;;22.30;99.90;;;;;;5013237;28;20499;-74
2022/06/04 02:09:13;;;;;;;33.13;9.63;;;22.30;99.90;;;;;;5014671;28;20494;-74
2022/06/04 02:11:44;;;;;;;31.30;8.85;;;22.30;99.90;;;;;;5015048;28;20034;-74
2022/06/04 02:14:10;;;;;;;35.47;9.30;;;22.30;99.90;;;;;;5007913;28;20029;-74
2022/06/04 02:16:45;;;;;;;25.05;8.23;;;22.30;99.90;;;;;;5013994;28;20137;-75
2022/06/04 02:19:11;;;;;;;27.33;8.95;;;22.30;99.90;;;;;;5013762;28;20022;-75
2022/06/04 02:21:37;;;;;;;29.15;8.30;;;22.30;99.90;;;;;;5012711;28;20045;-75
2022/06/04 02:24:04;;;;;;;32.15;8.63;;;22.30;99.90;;;;;;5013565;28;20038;-75
2022/06/04 02:26:30;;;;;;;28.83;9.50;;;22.30;99.90;;;;;;5013656;28;20034;-75
2022/06/04 02:28:58;;;;;;;33.22;8.80;;;22.30;99.90;;;;;;5013238;28;20022;-74
2022/06/04 02:31:42;;;;;;;31.17;8.60;;;22.20;99.90;;;;;;5014024;28;20030;-74
2022/06/04 02:34:12;;;;;;;27.58;9.65;;;22.20;99.90;;;;;;5013589;28;20045;-74
2022/06/04 02:36:41;;;;;;;30.67;10.25;;;22.20;99.90;;;;;;5013008;28;20038;-74
2022/06/04 02:39:29;;;;;;;33.53;10.57;;;22.20;99.90;;;;;;5014461;28;20030;-74
2022/06/04 02:42:13;;;;;;;40.45;10.23;;;22.00;99.90;;;;;;5013300;28;20030;-75
2022/06/04 02:44:51;;;;;;;31.30;10.32;;;21.90;99.90;;;;;;5012967;28;20457;-74
2022/06/04 02:47:35;;;;;;;32.33;9.85;;;21.80;99.90;;;;;;5014718;28;20049;-74
2022/06/04 02:50:22;;;;;;;30.92;9.73;;;21.90;99.90;;;;;;5014448;28;20032;-75
2022/06/04 02:52:51;;;;;;;44.25;11.20;;;21.80;99.90;;;;;;5013252;28;20017;-75
2022/06/04 02:55:20;;;;;;;35.25;10.63;;;21.80;99.90;;;;;;4998944;28;20041;-74
2022/06/04 02:57:49;;;;;;;31.48;10.57;;;21.80;99.90;;;;;;5008196;28;20014;-75
2022/06/04 03:00:18;;;;;;;28.58;10.10;;;21.80;99.90;;;;;;5012330;28;20022;-74
2022/06/04 03:02:44;;;;;;;35.80;10.40;;;21.80;99.90;;;;;;5013564;28;20364;-74
2022/06/04 03:05:23;;;;;;;31.90;9.75;;;21.90;99.90;;;;;;5013845;28;20068;-75
2022/06/04 03:07:51;;;;;;;26.45;10.55;;;21.90;99.90;;;;;;5003288;28;20088;-74
2022/06/04 03:10:24;;;;;;;34.60;11.45;;;21.90;99.90;;;;;;4997828;28;20503;-74
2022/06/04 03:12:51;;;;;;;43.63;11.27;;;21.90;99.90;;;;;;5011603;28;20034;-75
2022/06/04 03:15:17;;;;;;;29.35;10.93;;;21.90;99.90;;;;;;5013826;28;20042;-74
2022/06/04 03:17:46;;;;;;;31.58;10.43;;;21.90;99.90;;;;;;5013780;28;20036;-74
2022/06/04 03:20:16;;;;;;;32.20;10.25;;;21.80;99.90;;;;;;5013255;28;20586;-75
2022/06/04 03:22:42;;;;;;;33.15;9.65;;;21.90;99.90;;;;;;5014406;28;20030;-74
2022/06/04 03:25:08;;;;;;;31.20;10.18;;;21.80;99.90;;;;;;5012954;28;20026;-74
2022/06/04 03:27:34;;;;;;;32.97;8.95;;;21.80;99.90;;;;;;5012727;28;20046;-75
2022/06/04 03:30:00;;;;;;;33.80;9.77;;;21.90;99.90;;;;;;5014266;28;20446;-75
2022/06/04 03:32:26;;;;;;;27.30;8.73;;;21.80;99.90;;;;;;5014100;28;20104;-75
2022/06/04 03:34:51;;;;;;;30.48;8.90;;;21.80;99.90;;;;;;5013048;28;20038;-74
2022/06/04 03:37:17;;;;;;;33.75;10.10;;;21.80;99.90;;;;;;5012848;28;20060;-74
2022/06/04 03:39:43;;;;;;;33.33;10.00;;;21.80;99.90;;;;;;5007862;28;20025;-74
2022/06/04 03:42:09;;;;;;;24.95;9.70;;;21.80;99.90;;;;;;5011942;28;20034;-75
2022/06/04 03:44:35;;;;;;;26.75;9.80;;;21.80;99.90;;;;;;5014102;28;20029;-75
2022/06/04 03:47:01;;;;;;;34.53;9.68;;;21.80;99.90;;;;;;5013782;28;20109;-75
2022/06/04 03:49:26;;;;;;;37.88;10.52;;;21.80;99.90;;;;;;5011945;28;20022;-74
2022/06/04 03:51:52;;;;;;;30.92;9.82;;;21.90;99.90;;;;;;5011846;28;20105;-75
2022/06/04 03:54:52;;;;;;;28.48;9.95;;;21.90;99.90;;;;;;5013227;28;20503;-75
2022/06/04 03:59:51;;;;;;;30.27;9.48;;;21.90;99.90;;;;;;5014192;28;20119;-75
2022/06/04 04:02:16;;;;;;;31.50;9.30;;;21.90;99.90;;;;;;5012551;28;20037;-75
2022/06/04 04:04:42;;;;;;;25.65;9.73;;;21.80;99.90;;;;;;5011411;28;20125;-74
2022/06/04 04:07:08;;;;;;;32.55;9.65;;;21.90;99.90;;;;;;5012508;28;20028;-74
2022/06/04 04:09:33;;;;;;;28.67;8.60;;;21.90;99.90;;;;;;5012444;28;20684;-74
2022/06/04 04:11:59;;;;;;;34.17;9.63;;;21.80;99.90;;;;;;5013715;28;20033;-75
2022/06/04 04:14:25;;;;;;;37.03;10.25;;;21.80;99.90;;;;;;5016044;28;20116;-75
2022/06/04 04:16:51;;;;;;;33.45;9.45;;;21.80;99.90;;;;;;5015946;28;20034;-75
2022/06/04 04:19:16;;;;;;;36.47;10.00;;;21.90;99.90;;;;;;5017551;28;20026;-74
2022/06/04 04:21:42;;;;;;;37.70;10.18;;;21.80;99.90;;;;;;5014301;28;20569;-74
2022/06/04 04:24:08;;;;;;;30.10;10.98;;;21.80;99.90;;;;;;5017092;28;20041;-74
2022/06/04 04:26:34;;;;;;;31.63;8.63;;;21.70;99.90;;;;;;5017348;28;20034;-74
2022/06/04 04:28:59;;;;;;;30.13;9.75;;;21.80;99.90;;;;;;5016666;28;20033;-75
2022/06/04 04:31:26;;;;;;;36.38;9.90;;;21.80;99.90;;;;;;5016946;28;20087;-74
2022/06/04 04:33:52;;;;;;;25.30;8.93;;;21.80;99.90;;;;;;5015076;28;20030;-75
2022/06/04 04:36:17;;;;;;;33.72;9.68;;;21.80;99.90;;;;;;5015666;28;20092;-75
2022/06/04 04:38:43;;;;;;;35.13;9.18;;;21.80;99.90;;;;;;5016031;28;20491;-74
2022/06/04 04:41:11;;;;;;;31.58;10.40;;;21.80;99.90;;;;;;5016639;28;20464;-75
2022/06/04 04:43:37;;;;;;;30.40;10.18;;;21.80;99.90;;;;;;5017177;28;20525;-75
2022/06/04 04:46:05;;;;;;;29.83;8.82;;;21.90;99.90;;;;;;5014721;28;20026;-75
2022/06/04 04:48:31;;;;;;;32.20;9.55;;;22.00;99.90;;;;;;5016214;28;20026;-74
2022/06/04 04:50:57;;;;;;;26.50;9.63;;;22.00;99.90;;;;;;5016548;28;20033;-74
2022/06/04 04:53:23;;;;;;;35.83;8.63;;;22.00;99.90;;;;;;5016652;28;20060;-74
2022/06/04 04:55:49;;;;;;;31.98;9.50;;;22.00;99.90;;;;;;5015154;28;20045;-74
2022/06/04 04:58:15;;;;;;;29.00;8.75;;;22.00;99.90;;;;;;4999670;28;20398;-75
2022/06/04 05:00:43;;;;;;;26.08;8.45;;;22.00;99.90;;;;;;5013606;28;20030;-75
2022/06/04 05:03:08;;;;;;;26.88;8.98;;;22.00;99.90;;;;;;5015491;28;20041;-75
2022/06/04 05:05:34;;;;;;;29.00;9.00;;;22.10;99.90;;;;;;5014948;28;20026;-74
2022/06/04 05:08:01;;;;;;;32.22;8.80;;;22.10;99.90;;;;;;5014608;28;20021;-75
2022/06/04 05:10:27;;;;;;;30.38;8.82;;;22.00;99.90;;;;;;5015032;28;20034;-74
2022/06/04 05:12:54;;;;;;;36.22;9.43;;;22.10;99.90;;;;;;5014205;28;20479;-75
2022/06/04 05:15:21;;;;;;;26.15;8.40;;;22.10;99.90;;;;;;5015257;28;20034;-75
2022/06/04 05:17:47;;;;;;;27.63;8.80;;;22.20;99.90;;;;;;5015166;28;20022;-75
2022/06/04 05:20:13;;;;;;;28.63;8.15;;;22.10;99.90;;;;;;5013940;28;20521;-74
2022/06/04 05:22:39;;;;;;;29.10;8.88;;;22.20;99.90;;;;;;5014942;28;20080;-75
2022/06/04 05:25:06;;;;;;;32.85;9.00;;;22.30;99.90;;;;;;5014167;28;20474;-75
2022/06/04 05:27:31;;;;;;;31.10;8.20;;;22.40;99.90;;;;;;5013285;28;20049;-75
2022/06/04 05:29:57;;;;;;;30.08;8.55;;;22.30;99.90;;;;;;5014663;28;20068;-74
2022/06/04 05:32:23;;;;;;;29.92;8.48;;;22.30;99.90;;;;;;5016134;28;20053;-75
2022/06/04 05:34:49;;;;;;;26.83;8.65;;;22.30;99.90;;;;;;5014817;28;20037;-75
2022/06/04 05:37:14;;;;;;;31.63;8.95;;;22.40;99.90;;;;;;5015103;28;20072;-74
2022/06/04 05:39:40;;;;;;;32.83;7.72;;;22.30;99.90;;;;;;5013518;28;20040;-74
2022/06/04 05:42:06;;;;;;;26.45;8.25;;;22.40;99.90;;;;;;5015728;28;20030;-74
2022/06/04 05:44:32;;;;;;;25.90;7.78;;;22.40;99.90;;;;;;5015866;28;20022;-74
2022/06/04 05:46:59;;;;;;;25.20;8.70;;;22.50;99.90;;;;;;5015841;28;20079;-75
2022/06/04 05:49:25;;;;;;;28.40;7.95;;;22.50;99.90;;;;;;5016082;28;20021;-75
2022/06/04 05:51:51;;;;;;;32.65;8.38;;;22.50;99.90;;;;;;5013208;28;20021;-75
2022/06/04 05:54:19;;;;;;;28.45;7.95;;;22.60;99.90;;;;;;5015776;28;20087;-75
2022/06/04 05:56:47;;;;;;;31.50;7.82;;;22.70;99.90;;;;;;5014804;28;20088;-74
2022/06/04 05:59:16;;;;;;;31.55;7.95;;;22.70;99.90;;;;;;5015585;28;20101;-74
2022/06/04 06:01:44;;;;;;;22.20;7.68;;;22.70;99.90;;;;;;5015818;28;20037;-75
2022/06/04 06:04:11;;;;;;;32.30;8.23;;;22.80;99.90;;;;;;5014333;28;20045;-75
2022/06/04 06:06:45;;;;;;;33.15;7.80;;;22.70;99.90;;;;;;5013022;28;20033;-74
2022/06/04 06:09:12;;;;;;;29.48;7.78;;;22.80;99.90;;;;;;5013931;28;20026;-75
2022/06/04 06:11:40;;;;;;;27.15;8.32;;;22.80;99.90;;;;;;5013756;28;20095;-75
2022/06/04 06:14:10;;;;;;;27.38;8.55;;;22.80;99.90;;;;;;5013031;28;20029;-75
2022/06/04 06:16:42;;;;;;;30.13;7.93;;;22.90;99.90;;;;;;5015334;28;20045;-72
2022/06/04 06:19:08;;;;;;;27.63;7.30;;;23.00;99.90;;;;;;5013441;28;20556;-71
2022/06/04 06:21:35;;;;;;;34.42;8.13;;;23.00;99.90;;;;;;5013771;28;20049;-71
2022/06/04 06:24:01;;;;;;;28.70;8.07;;;23.00;99.90;;;;;;5013264;28;20030;-73
2022/06/04 06:26:30;;;;;;;29.15;9.32;;;23.00;99.90;;;;;;5015236;28;20435;-74
2022/06/04 06:28:59;;;;;;;34.58;9.95;;;23.00;99.90;;;;;;5012275;28;20073;-72
2022/06/04 06:31:27;;;;;;;26.75;8.75;;;23.00;99.90;;;;;;5014895;28;20036;-72
2022/06/04 06:33:54;;;;;;;31.30;9.07;;;23.10;99.90;;;;;;5011966;28;20046;-72
2022/06/04 06:36:21;;;;;;;27.92;8.95;;;23.20;99.90;;;;;;5010503;28;20053;-73
2022/06/04 06:38:48;;;;;;;23.98;8.02;;;23.20;99.90;;;;;;5012661;28;20076;-72
2022/06/04 06:41:16;;;;;;;24.30;7.90;;;23.20;99.90;;;;;;5014744;28;20030;-72
2022/06/04 06:43:47;;;;;;;27.50;9.00;;;23.30;99.90;;;;;;5014837;28;20018;-69
2022/06/04 06:46:19;;;;;;;28.55;7.93;;;23.30;99.90;;;;;;5014027;28;20508;-69
2022/06/04 06:48:46;;;;;;;23.42;8.32;;;23.40;99.90;;;;;;5008233;28;20037;-70
2022/06/04 06:51:23;;;;;;;27.50;8.98;;;23.40;99.90;;;;;;5013894;28;20041;-70
2022/06/04 06:53:49;;;;;;;26.17;7.75;;;23.40;99.90;;;;;;5013006;28;20509;-70
2022/06/04 06:56:20;;;;;;;32.35;9.07;;;23.50;99.90;;;;;;5012941;28;20033;-73
2022/06/04 06:58:47;;;;;;;24.48;8.65;;;23.50;99.90;;;;;;5014695;28;20072;-70
2022/06/04 07:01:14;;;;;;;26.45;8.13;;;23.50;99.90;;;;;;5013356;28;20029;-70
2022/06/04 07:03:40;;;;;;;26.55;8.68;;;23.50;99.90;;;;;;5012197;28;20034;-71
2022/06/04 07:06:07;;;;;;;25.35;8.73;;;23.60;99.90;;;;;;5013899;28;20072;-71
2022/06/04 07:08:34;;;;;;;27.08;9.13;;;23.60;99.90;;;;;;5009838;28;20380;-72
2022/06/04 07:11:00;;;;;;;33.65;8.73;;;23.70;99.90;;;;;;5014254;28;20028;-69
2022/06/04 07:13:25;;;;;;;26.23;8.10;;;23.80;99.90;;;;;;5013936;28;20026;-71
2022/06/04 07:15:52;;;;;;;42.60;11.55;;;23.80;99.90;;;;;;5010793;28;20042;-72
2022/06/04 07:18:18;;;;;;;24.88;8.82;;;23.80;99.90;;;;;;5011845;28;20041;-71
2022/06/04 07:20:43;;;;;;;33.17;9.43;;;23.80;99.90;;;;;;5014331;28;20048;-71
2022/06/04 07:23:10;;;;;;;30.52;9.40;;;23.90;99.90;;;;;;5013741;28;20026;-71
2022/06/04 07:25:37;;;;;;;30.13;9.00;;;23.90;99.90;;;;;;5012779;28;20025;-71
2022/06/04 07:28:04;;;;;;;31.00;8.98;;;24.00;99.90;;;;;;5011878;28;20022;-73
2022/06/04 07:30:30;;;;;;;40.17;11.20;;;24.00;99.90;;;;;;5013838;28;20041;-71
2022/06/04 07:32:56;;;;;;;25.85;9.00;;;24.00;99.90;;;;;;5012107;28;20026;-72
2022/06/04 07:35:22;;;;;;;24.48;8.52;;;24.10;99.90;;;;;;5014206;28;20044;-71
2022/06/04 07:37:48;;;;;;;26.83;8.35;;;24.20;99.90;;;;;;5013859;28;20041;-72
2022/06/04 07:40:14;;;;;;;26.75;9.38;;;24.20;99.90;;;;;;5012637;28;20056;-70
2022/06/04 07:42:39;;;;;;;28.83;7.65;;;24.20;99.90;;;;;;5012332;28;20530;-70
2022/06/04 07:45:06;;;;;;;20.75;6.85;;;24.30;99.90;;;;;;5013814;28;20026;-70
2022/06/04 07:47:34;;;;;;;24.67;6.97;;;24.30;99.90;;;;;;5012203;28;20030;-69
2022/06/04 07:50:00;;;;;;;24.15;8.60;;;24.50;99.90;;;;;;5012269;28;20034;-69
2022/06/04 07:52:26;;;;;;;25.27;9.55;;;24.50;99.90;;;;;;5015284;28;20113;-69
2022/06/04 07:54:52;;;;;;;27.58;6.50;;;24.50;99.90;;;;;;5011114;28;20125;-69
2022/06/04 07:57:18;;;;;;;21.67;6.53;;;24.60;99.90;;;;;;5010131;28;20450;-69
2022/06/04 07:59:43;;;;;;;25.25;7.05;;;24.70;99.90;;;;;;5009534;28;20030;-69
2022/06/04 08:02:10;;;;;;;26.60;6.97;;;24.70;99.90;;;;;;5008041;28;20437;-69
2022/06/04 08:04:37;;;;;;;26.42;7.22;;;24.70;99.90;;;;;;5008947;28;20384;-69
2022/06/04 08:07:06;;;;;;;23.33;6.63;;;24.70;99.90;;;;;;5009387;28;20246;-72
2022/06/04 08:09:32;;;;;;;21.33;6.75;;;24.80;99.90;;;;;;5010908;28;20516;-69
2022/06/04 08:11:59;;;;;;;20.85;6.43;;;24.90;99.90;;;;;;5009163;28;20033;-71
2022/06/04 08:14:25;;;;;;;28.85;6.72;;;24.90;99.90;;;;;;5008767;28;20069;-67
2022/06/04 08:17:00;;;;;;;27.98;7.05;;;24.90;99.90;;;;;;5008610;28;20042;-70
2022/06/04 08:19:28;;;;;;;21.52;6.53;;;25.00;99.90;;;;;;5008033;28;20022;-70
2022/06/04 08:21:55;;;;;;;28.00;9.18;;;25.00;99.90;;;;;;5011074;28;20769;-76
2022/06/04 08:24:21;;;;;;;25.50;6.47;;;25.10;99.90;;;;;;5008647;28;20034;-74
2022/06/04 08:26:53;;;;;;;27.95;8.57;;;25.10;99.70;;;;;;5008490;28;20423;-69
2022/06/04 08:29:20;;;;;;;15.88;6.28;;;25.10;99.90;;;;;;5008711;28;20040;-68
2022/06/04 08:31:46;;;;;;;23.85;6.53;;;25.40;98.90;;;;;;5008625;28;20045;-68
2022/06/04 08:34:12;;;;;;;22.75;6.32;;;25.40;97.80;;;;;;5009468;28;20491;-69
2022/06/04 08:36:38;;;;;;;20.23;6.07;;;25.50;96.70;;;;;;5010741;28;20049;-69
2022/06/04 08:39:04;;;;;;;24.67;6.00;;;25.60;96.50;;;;;;5010551;28;20133;-70
2022/06/04 08:41:39;;;;;;;14.48;5.22;;;25.80;95.30;;;;;;5008785;28;20439;-69
2022/06/04 08:44:28;;;;;;;17.60;6.05;;;25.70;95.50;;;;;;5008698;28;20079;-70
2022/06/04 08:47:01;;;;;;;23.48;6.70;;;25.80;95.10;;;;;;4989788;28;20042;-70
2022/06/04 08:49:32;;;;;;;;;;;25.60;95.50;;;;;;5009693;28;20037;-69
2022/06/04 08:52:01;;;;;;;20.83;6.53;;;25.60;95.80;;;;;;5006587;28;19964;-69
2022/06/04 08:57:35;;;;;;;20.83;5.53;;;25.90;95.40;;;;;;5008179;28;20036;-69
2022/06/04 09:00:33;;;;;;;16.15;5.88;;;25.90;96.10;;;;;;5006768;28;20036;-70
2022/06/04 09:03:11;;;;;;;26.98;6.28;;;25.90;95.80;;;;;;5002554;28;20037;-70
2022/06/04 09:05:55;;;;;;;22.10;6.05;;;26.00;95.80;;;;;;5008007;28;20045;-69
2022/06/04 09:08:40;;;;;;;21.52;5.68;;;26.10;95.10;;;;;;5006074;28;20141;-68
2022/06/04 09:11:13;;;;;;;21.05;5.95;;;26.30;94.70;;;;;;5008033;28;20502;-68
2022/06/04 09:13:46;;;;;;;20.00;6.13;;;26.30;94.00;;;;;;5008766;28;20037;-70
2022/06/04 09:16:36;;;;;;;20.30;5.70;;;26.30;94.00;;;;;;5008689;28;20053;-70
2022/06/04 09:19:10;;;;;;;17.50;5.90;;;26.30;94.10;;;;;;5007912;28;20261;-70
2022/06/04 09:21:38;;;;;;;18.58;5.90;;;26.50;93.60;;;;;;5009737;28;20053;-70
2022/06/04 09:24:05;;;;;;;18.90;5.38;;;26.40;93.80;;;;;;4999185;28;20031;-70
2022/06/04 09:27:05;;;;;;;18.40;6.13;;;26.50;94.60;;;;;;5004312;28;20022;-70
2022/06/04 09:30:04;;;;;;;21.80;6.13;;;26.60;93.10;;;;;;4960470;28;20042;-70
2022/06/04 09:32:44;;;;;;;18.65;6.10;;;26.60;92.50;;;;;;4968218;28;20065;-70
2022/06/04 09:35:26;;;;;;;20.92;6.10;;;26.70;92.70;;;;;;4961382;28;20121;-71
2022/06/04 09:37:52;;;;;;;21.13;6.50;;;26.70;92.50;;;;;;4968517;28;20049;-68
2022/06/04 09:40:27;;;;;;;20.88;5.82;;;26.70;92.20;;;;;;4967389;28;20039;-69
2022/06/04 09:43:13;;;;;;;20.80;5.93;;;26.70;92.20;;;;;;4968657;28;20039;-67
2022/06/04 09:45:39;;;;;;;16.80;6.57;;;26.60;92.20;;;;;;4968993;28;20042;-68
2022/06/04 09:48:19;;;;;;;18.05;6.55;;;26.70;93.00;;;;;;4966909;28;20482;-68
2022/06/04 09:50:53;;;;;;;19.38;6.15;;;26.90;92.50;;;;;;4965664;28;20054;-75
2022/06/04 09:53:23;;;;;;;19.42;6.55;;;27.00;92.40;;;;;;4968574;28;20133;-69
2022/06/04 09:55:57;;;;;;;24.70;6.50;;;27.10;92.80;;;;;;4978387;28;20118;-70
2022/06/04 09:58:30;;;;;;;31.10;7.00;;;26.90;92.90;;;;;;4968095;28;20042;-69
2022/06/04 10:01:00;;;;;;;18.52;6.20;;;27.10;92.40;;;;;;4967954;28;20026;-68
2022/06/04 10:03:28;;;;;;;21.30;6.55;;;27.10;92.40;;;;;;4968071;28;20031;-69
2022/06/04 10:06:05;;;;;;;23.83;6.18;;;27.00;93.30;;;;;;5002423;28;20069;-70
2022/06/04 10:09:54;;;;;;;22.98;7.30;;;26.90;93.10;;;;;;5009234;28;20054;-69
2022/06/04 10:11:21;;;;;;;18.83;7.13;;;27.00;94.20;;;;;;5009230;28;20034;-69
2022/06/04 10:13:49;;;;;;;18.48;6.80;;;27.30;94.00;;;;;;5009191;28;20030;-70
2022/06/04 10:16:23;;;;;;;20.52;6.65;;;27.30;93.90;;;;;;5011495;28;20033;-69
2022/06/04 10:19:00;;;;;;;18.30;7.07;;;27.20;93.50;;;;;;5008639;28;20053;-71
2022/06/04 10:21:40;;;;;;;23.33;8.00;;;27.10;94.20;;;;;;5011892;28;20046;-69
2022/06/04 10:24:28;;;;;;;25.58;7.80;;;27.20;93.70;;;;;;5011167;28;20034;-69
2022/06/04 10:27:12;;;;;;;20.90;7.93;;;27.00;94.20;;;;;;5008722;28;20038;-69
2022/06/04 10:29:40;;;;;;;21.52;7.97;;;27.20;93.80;;;;;;5009861;28;20105;-69
2022/06/04 10:32:31;;;;;;;22.60;8.40;;;27.10;93.70;;;;;;5009029;28;20228;-69
2022/06/04 10:35:02;;;;;;;20.55;8.10;;;27.30;94.90;;;;;;5010720;28;20410;-68
2022/06/04 10:38:05;;;;;;;18.67;7.90;;;27.50;94.70;;;;;;5013468;28;20079;-69
2022/06/04 10:41:08;;;;;;;21.48;7.13;;;27.30;93.60;;;;;;4999165;28;20531;-68
2022/06/04 10:44:02;;;;;;;20.42;8.43;;;27.20;93.10;;;;;;5003890;28;20113;-69
2022/06/04 10:46:36;;;;;;;19.55;8.18;;;27.30;93.50;;;;;;5002793;28;20124;-69
2022/06/04 10:49:17;;;;;;;15.65;7.88;;;27.40;94.60;;;;;;5012837;28;20116;-69
2022/06/04 10:52:21;;;;;;;23.73;9.02;;;27.30;95.50;;;;;;5012001;28;20108;-68
2022/06/04 10:55:06;;;;;;;28.08;9.50;;;27.50;93.90;;;;;;5007792;28;20046;-68
2022/06/04 10:57:44;;;;;;;26.98;8.68;;;27.20;95.10;;;;;;5010389;28;20045;-69
2022/06/04 11:00:23;;;;;;;34.00;9.60;;;27.40;94.80;;;;;;5012360;28;20547;-69
2022/06/04 11:03:11;;;;;;;21.02;9.35;;;27.50;96.10;;;;;;5010761;28;20454;-68
2022/06/04 11:05:47;;;;;;;20.98;9.43;;;27.80;95.70;;;;;;5014187;28;20034;-69
2022/06/04 11:08:38;;;;;;;16.65;9.85;;;27.30;96.50;;;;;;5014492;28;20030;-68
2022/06/04 11:11:28;;;;;;;19.77;10.43;;;27.60;97.00;;;;;;5003849;28;20061;-69
2022/06/04 11:14:01;;;;;;;18.92;9.45;;;27.50;97.10;;;;;;5014118;28;20399;-69
2022/06/04 11:16:41;;;;;;;20.88;10.60;;;27.10;97.20;;;;;;5012580;28;20042;-76
2022/06/04 11:19:19;;;;;;;22.65;11.30;;;27.40;97.10;;;;;;5012723;28;20057;-71
2022/06/04 11:21:54;;;;;;;21.98;10.27;;;27.30;96.80;;;;;;5011632;28;20505;-70
2022/06/04 11:24:27;;;;;;;25.23;12.82;;;27.30;97.70;;;;;;5011907;28;20468;-68
2022/06/04 11:27:12;;;;;;;28.92;11.57;;;27.20;97.90;;;;;;5012460;28;20022;-68
2022/06/04 11:29:39;;;;;;;27.95;11.45;;;27.00;98.20;;;;;;5013327;28;20066;-68
2022/06/04 11:32:22;;;;;;;23.30;11.20;;;27.30;98.30;;;;;;5013043;28;20022;-71
2022/06/04 11:35:03;;;;;;;27.80;12.45;;;27.20;97.90;;;;;;5001584;28;20033;-73
2022/06/04 11:37:58;;;;;;;29.65;12.13;;;27.70;97.70;;;;;;5004015;28;20536;-70
2022/06/04 11:41:00;;;;;;;24.77;11.60;;;27.30;97.80;;;;;;4998133;28;20514;-70
2022/06/04 11:43:46;;;;;;;29.40;11.85;;;27.30;98.60;;;;;;4998933;28;20070;-70
2022/06/04 11:46:20;;;;;;;23.05;13.02;;;27.50;96.90;;;;;;5011812;28;20069;-69
2022/06/04 11:49:34;;;;;;;539.58;412.20;;;27.40;97.60;;;;;;5011674;28;20083;-69
2022/06/04 11:52:17;;;;;;;40.65;18.95;;;27.70;98.10;;;;;;4950473;29;20027;-69
2022/06/04 11:54:55;;;;;;;29.33;12.60;;;27.40;98.60;;;;;;4945868;29;20043;-69
2022/06/04 11:57:44;;;;;;;346.13;275.90;;;27.50;98.80;;;;;;4950284;29;20622;-69
2022/06/04 12:00:18;;;;;;;26.23;10.63;;;27.70;98.20;;;;;;4950409;29;20031;-71
2022/06/04 12:02:59;;;;;;;21.95;11.23;;;27.70;97.50;;;;;;4949807;29;20087;-69
2022/06/04 12:05:43;;;;;;;21.35;10.93;;;27.50;96.90;;;;;;4950198;29;20038;-68
2022/06/04 12:08:15;;;;;;;21.08;10.65;;;27.50;96.80;;;;;;4950225;29;20031;-69
2022/06/04 12:11:04;;;;;;;25.77;11.23;;;27.40;97.40;;;;;;4950167;29;20031;-69
2022/06/04 12:13:50;;;;;;;26.85;10.77;;;27.60;97.40;;;;;;4950537;29;20119;-69
2022/06/04 12:16:21;;;;;;;27.88;10.82;;;27.60;97.40;;;;;;4950550;29;20535;-69
2022/06/04 12:18:56;;;;;;;22.77;10.93;;;27.70;97.60;;;;;;4951124;29;20488;-68
2022/06/04 12:24:37;;;;;;;23.60;10.27;;;27.50;97.90;;;;;;5012033;28;20100;-69
2022/06/04 12:27:07;;;;;;;23.67;11.05;;;27.40;98.20;;;;;;5013499;28;20379;-68
2022/06/04 12:29:44;;;;;;;28.67;11.75;;;27.50;98.30;;;;;;5012877;28;20026;-69
2022/06/04 12:32:34;;;;;;;25.00;11.70;;;27.20;99.00;;;;;;5013212;28;20403;-69
2022/06/04 12:35:08;;;;;;;30.35;12.23;;;27.20;99.50;;;;;;5014309;28;20391;-70
2022/06/04 12:37:41;;;;;;;27.60;10.98;;;27.10;99.70;;;;;;5016940;28;20383;-68
2022/06/04 12:40:34;;;;;;;24.92;10.52;;;27.20;99.50;;;;;;5015713;28;20017;-69
2022/06/04 12:43:19;;;;;;;23.48;10.07;;;27.40;99.20;;;;;;5011156;28;20124;-69
2022/06/04 12:45:46;;;;;;;24.80;10.20;;;27.40;98.60;;;;;;5014745;28;20049;-69
2022/06/04 12:48:37;;;;;;;27.20;10.80;;;27.40;98.70;;;;;;5016313;28;20026;-69
2022/06/04 12:51:09;;;;;;;24.67;9.73;;;27.30;98.00;;;;;;5015747;28;20445;-69
2022/06/04 12:53:56;;;;;;;27.15;10.50;;;27.60;97.20;;;;;;5016036;28;20040;-69
2022/06/04 12:56:31;;;;;;;24.08;9.30;;;27.60;97.30;;;;;;5016756;28;20256;-69
2022/06/04 12:59:00;;;;;;;24.85;9.88;;;27.40;97.60;;;;;;5016748;28;20033;-69
2022/06/04 13:01:39;;;;;;;28.25;9.45;;;27.80;97.50;;;;;;5016221;28;20073;-70
2022/06/04 13:04:11;;;;;;;24.48;9.57;;;27.40;97.40;;;;;;5012672;28;20164;-72
2022/06/04 13:06:52;;;;;;;29.60;10.27;;;27.70;97.70;;;;;;5012446;28;20025;-71
2022/06/04 13:09:31;;;;;;;24.17;10.13;;;27.70;96.70;;;;;;5016304;28;20056;-72
2022/06/04 13:12:02;;;;;;;24.52;9.15;;;27.60;96.60;;;;;;5015048;28;20030;-76
2022/06/04 13:14:53;;;;;;;23.83;9.05;;;27.80;96.60;;;;;;5016354;28;20042;-72
2022/06/04 13:17:42;;;;;;;22.90;8.68;;;28.10;96.40;;;;;;5015691;28;20391;-70
2022/06/04 13:20:34;;;;;;;39.03;9.65;;;28.10;96.60;;;;;;5016091;28;20064;-72